Time;durP1;ratioP1;P1;durP2;ratioP2;P2;SDS_P1;SDS_P2;PMS_P1;PMS_P2;Temp;Humidity;BMP_temperature;BMP_pressure;BME280_temperature;BME280_humidity;BME280_pressure;Samples;Min_cycle;Max_cycle;Signal;HPM_P1;HPM_P2
2023/03/28 00:04:40;;;;;;;17.30;9.50;;;;;;;-2.61;72.93;98525.43;220696;1283;22645;-72
2023/03/28 00:09:43;;;;;;;13.40;8.50;;;;;;;-2.62;73.04;98524.13;220810;1281;24151;-72
2023/03/28 00:14:48;;;;;;;14.20;9.40;;;;;;;-2.62;73.60;98524.47;220939;1283;24235;-70
2023/03/28 00:19:52;;;;;;;17.50;10.90;;;;;;;-2.62;73.59;98523.73;220549;1283;22592;-71
2023/03/28 00:24:55;;;;;;;17.10;10.10;;;;;;;-2.62;73.90;98526.16;221078;1280;24400;-71
2023/03/28 00:29:59;;;;;;;16.40;10.60;;;;;;;-2.61;74.19;98528.20;221457;1278;22660;-72
2023/03/28 00:35:08;;;;;;;18.00;9.90;;;;;;;-2.61;74.04;98524.38;221025;1257;24413;-71
2023/03/28 00:40:14;;;;;;;19.10;10.00;;;;;;;-2.61;74.09;98527.46;221177;1280;22819;-70
2023/03/28 00:45:20;;;;;;;14.90;8.90;;;;;;;-2.58;74.44;98531.27;221185;1280;23317;-71
2023/03/28 00:50:30;;;;;;;16.20;9.40;;;;;;;-2.49;74.77;98528.72;221076;1280;25399;-71
2023/03/28 00:55:45;;;;;;;14.40;9.80;;;;;;;-2.36;74.76;98526.55;220965;1280;22659;-71
2023/03/28 01:01:04;;;;;;;19.50;9.80;;;;;;;-2.29;74.85;98523.38;221248;1271;25642;-71
2023/03/28 01:06:15;;;;;;;13.20;9.10;;;;;;;-2.28;74.64;98521.77;221017;1280;25454;-71
2023/03/28 01:11:20;;;;;;;15.70;8.10;;;;;;;-2.30;74.98;98526.55;221207;1275;25542;-70
2023/03/28 01:16:23;;;;;;;15.40;8.70;;;;;;;-2.33;75.05;98528.20;221149;1280;25540;-71
2023/03/28 01:21:49;;;;;;;14.40;8.20;;;;;;;-2.36;75.53;98527.90;221050;1280;24237;-71
2023/03/28 01:27:14;;;;;;;14.50;8.80;;;;;;;-2.37;75.58;98526.45;221053;1278;22640;-72
2023/03/28 01:32:54;;;;;;;14.70;8.40;;;;;;;-2.39;75.86;98526.62;221256;1280;23106;-69
2023/03/28 01:38:51;;;;;;;13.30;8.00;;;;;;;-2.42;75.86;98521.30;221242;1280;24240;-72
2023/03/28 01:44:17;;;;;;;13.20;8.70;;;;;;;-2.47;76.25;98516.63;221434;1280;22618;-71
2023/03/28 01:49:48;;;;;;;15.10;8.40;;;;;;;-2.51;76.19;98509.69;220946;1283;23075;-72
2023/03/28 01:55:08;;;;;;;14.90;7.90;;;;;;;-2.55;76.53;98512.02;220825;1283;25515;-70
2023/03/28 02:00:35;;;;;;;15.30;8.90;;;;;;;-2.51;76.98;98514.86;220803;1281;22695;-70
2023/03/28 02:05:44;;;;;;;12.80;7.30;;;;;;;-2.43;76.98;98511.73;220899;1281;22745;-71
2023/03/28 02:10:55;;;;;;;12.80;7.90;;;;;;;-2.36;77.13;98505.63;220977;1283;22712;-71
2023/03/28 02:16:22;;;;;;;12.80;7.50;;;;;;;-2.32;77.16;98504.14;220648;1283;24265;-70
2023/03/28 02:22:15;;;;;;;15.00;8.70;;;;;;;-2.35;77.29;98503.64;220928;1280;23373;-71
2023/03/28 02:27:33;;;;;;;13.70;8.30;;;;;;;-2.40;77.47;98502.34;221431;1278;22616;-73
2023/03/28 02:33:05;;;;;;;14.70;8.90;;;;;;;-2.44;77.51;98495.61;220963;1280;27167;-71
2023/03/28 02:38:29;;;;;;;15.00;8.70;;;;;;;-2.50;77.69;98494.24;221324;1278;22529;-72
2023/03/28 02:43:46;;;;;;;15.80;9.20;;;;;;;-2.55;77.87;98500.17;221147;1280;24314;-72
2023/03/28 02:49:13;;;;;;;16.30;8.70;;;;;;;-2.60;78.09;98498.27;221254;1280;23408;-71
2023/03/28 02:54:34;;;;;;;12.00;7.30;;;;;;;-2.63;78.33;98495.42;221517;1263;22972;-72
2023/03/28 03:00:15;;;;;;;15.90;9.20;;;;;;;-2.62;78.56;98495.17;220700;1280;24400;-70
2023/03/28 03:05:19;;;;;;;14.20;8.70;;;;;;;-2.58;78.46;98492.95;221215;1281;22551;-72
2023/03/28 03:10:22;;;;;;;16.80;9.70;;;;;;;-2.52;78.65;98491.64;221018;1280;22801;-70
2023/03/28 03:15:31;;;;;;;10.50;6.60;;;;;;;-2.41;78.74;98488.83;221205;1279;22576;-72
2023/03/28 03:20:49;;;;;;;9.50;6.60;;;;;;;-2.27;79.29;98488.06;221141;1280;22535;-72
2023/03/28 03:25:55;;;;;;;10.90;6.90;;;;;;;-2.11;79.35;98489.28;221167;1280;22585;-72
2023/03/28 03:31:05;;;;;;;;;;;;;;;-1.95;79.30;98481.86;221148;1279;22527;-71
2023/03/28 03:36:12;;;;;;;11.30;7.10;;;;;;;-1.85;79.38;98475.21;221134;1280;22754;-71
2023/03/28 03:41:15;;;;;;;10.40;7.20;;;;;;;-1.75;79.53;98472.20;221089;1279;22676;-72
2023/03/28 03:46:18;;;;;;;10.40;7.10;;;;;;;-1.71;79.40;98467.73;220987;1280;25353;-71
2023/03/28 03:51:21;;;;;;;11.20;6.70;;;;;;;-1.65;79.47;98470.19;221237;1280;24225;-72
2023/03/28 03:56:31;;;;;;;13.70;7.00;;;;;;;-1.57;79.65;98468.38;221195;1280;22576;-73
2023/03/28 04:01:35;;;;;;;9.10;6.50;;;;;;;-1.48;79.52;98472.33;221317;1281;22705;-73
2023/03/28 04:07:05;;;;;;;12.00;7.30;;;;;;;-1.40;79.52;98479.29;221128;1280;22590;-72
2023/03/28 04:12:10;;;;;;;10.80;6.30;;;;;;;-1.30;79.23;98480.05;221439;1279;22568;-72
2023/03/28 04:17:28;;;;;;;6.30;5.00;;;;;;;-1.18;79.43;98483.71;221444;1280;22531;-71
2023/03/28 04:22:40;;;;;;;7.90;4.60;;;;;;;-1.03;79.59;98482.57;221107;1280;22639;-72
2023/03/28 04:27:58;;;;;;;9.10;5.50;;;;;;;-0.91;79.28;98487.11;221259;1280;22530;-70
2023/03/28 04:33:04;;;;;;;6.10;4.70;;;;;;;-0.82;79.20;98487.73;221182;1281;24237;-72
2023/03/28 04:38:11;;;;;;;;;;;;;;;-0.74;79.32;98485.90;221190;1281;23149;-73
2023/03/28 04:43:31;;;;;;;5.60;3.90;;;;;;;-0.70;79.37;98489.73;221249;1279;22664;-71
2023/03/28 04:48:43;;;;;;;7.30;4.60;;;;;;;-0.66;79.15;98483.02;221072;1280;22628;-72
2023/03/28 04:54:26;;;;;;;;;;;;;;;;;;;;;
2023/03/28 05:00:21;;;;;;;;;;;;;;;;;;;;;
2023/03/28 05:06:01;;;;;;;7.70;5.00;;;;;;;-0.52;79.98;98496.59;221207;1280;24292;-72
2023/03/28 05:11:10;;;;;;;7.30;5.40;;;;;;;-0.33;80.83;98495.52;221248;1280;22601;-71
2023/03/28 05:16:15;;;;;;;7.20;4.90;;;;;;;-0.20;80.60;98491.17;221104;1279;22746;-72
2023/03/28 05:21:17;;;;;;;6.80;4.80;;;;;;;-0.12;80.89;98493.59;221310;1280;22577;-71
2023/03/28 05:26:29;;;;;;;6.40;4.90;;;;;;;-0.07;80.95;98489.73;221197;1280;22651;-72
2023/03/28 05:31:43;;;;;;;5.30;4.60;;;;;;;0.00;80.89;98494.80;221143;1280;25580;-71
2023/03/28 05:36:57;;;;;;;5.80;4.50;;;;;;;0.09;81.07;98494.08;221304;1258;22709;-72
2023/03/28 05:42:22;;;;;;;6.90;5.20;;;;;;;0.16;80.72;98498.33;221396;1277;25693;-72
2023/03/28 05:47:25;;;;;;;8.50;5.20;;;;;;;0.17;80.62;98502.33;221352;1280;25390;-72
2023/03/28 05:52:31;;;;;;;5.20;4.30;;;;;;;0.27;80.61;98507.17;221271;1281;22545;-72
2023/03/28 05:57:56;;;;;;;7.90;4.40;;;;;;;0.41;80.70;98512.84;221279;1273;22538;-70
2023/03/28 06:03:38;;;;;;;4.80;3.60;;;;;;;0.46;80.40;98514.41;221883;1273;23208;-71
2023/03/28 06:09:18;;;;;;;7.60;4.60;;;;;;;0.51;80.31;98523.73;222184;1261;23893;-71
2023/03/28 06:14:45;;;;;;;9.60;4.30;;;;;;;0.55;80.10;98528.22;221680;1269;138388;-69
2023/03/28 06:20:10;;;;;;;5.90;4.40;;;;;;;0.66;79.75;98527.08;221319;1273;138659;-70
2023/03/28 06:25:27;;;;;;;6.30;4.70;;;;;;;0.91;79.79;98538.13;221514;1272;24390;-72
2023/03/28 06:30:30;;;;;;;6.10;2.80;;;;;;;0.93;79.83;98570.68;221022;1266;138058;-71
2023/03/28 06:35:54;;;;;;;3.90;1.50;;;;;;;0.67;80.48;98601.87;221382;1257;138595;-71
2023/03/28 06:41:24;;;;;;;3.60;1.40;;;;;;;0.05;82.83;98606.21;221131;1270;138397;-72
2023/03/28 06:46:31;;;;;;;1.20;1.10;;;;;;;-0.37;83.74;98603.10;221566;1267;138911;-75
2023/03/28 06:51:42;;;;;;;2.50;1.40;;;;;;;-0.48;83.78;98609.54;221797;1273;138479;-72
2023/03/28 06:57:05;;;;;;;1.50;1.40;;;;;;;-0.40;83.52;98606.92;221380;1280;139073;-73
2023/03/28 07:02:18;;;;;;;2.90;2.20;;;;;;;-0.24;83.04;98615.72;221587;1273;138427;-73
2023/03/28 07:07:22;;;;;;;2.30;1.80;;;;;;;-0.11;81.37;98622.63;221661;1269;22639;-72
2023/03/28 07:12:34;;;;;;;3.20;2.30;;;;;;;0.01;80.87;98635.44;221655;1257;22613;-72
2023/03/28 07:17:37;;;;;;;4.70;2.00;;;;;;;0.22;80.71;98655.39;221664;1264;138124;-72
2023/03/28 07:23:05;;;;;;;2.70;2.30;;;;;;;0.41;79.45;98658.52;221068;1264;138218;-75
2023/03/28 07:28:23;;;;;;;3.40;2.40;;;;;;;0.49;79.00;98672.02;220959;1277;138508;-72
2023/03/28 07:33:39;;;;;;;3.00;2.00;;;;;;;0.54;78.95;98668.48;221143;1276;138645;-72
2023/03/28 07:38:46;;;;;;;3.30;2.40;;;;;;;0.74;78.06;98671.45;221275;1276;138323;-74
2023/03/28 07:44:07;;;;;;;3.10;2.10;;;;;;;1.06;77.19;98681.91;221203;1282;137931;-73
2023/03/28 07:49:19;;;;;;;2.50;1.80;;;;;;;1.47;75.81;98686.56;221912;1273;24389;-72
2023/03/28 07:54:47;;;;;;;3.30;1.70;;;;;;;1.47;75.35;98708.61;221118;1262;22598;-68
2023/03/28 07:59:56;;;;;;;2.00;1.30;;;;;;;1.32;75.14;98723.19;220846;1277;138127;-68
2023/03/28 08:05:15;;;;;;;1.60;1.50;;;;;;;1.53;75.05;98725.56;220954;1270;138192;-71
2023/03/28 08:10:23;;;;;;;2.30;1.70;;;;;;;1.65;74.01;98740.33;220982;1283;138278;-69
2023/03/28 08:15:35;;;;;;;2.80;2.30;;;;;;;1.48;73.45;98757.09;220906;1282;138284;-68
2023/03/28 08:20:56;;;;;;;2.50;2.30;;;;;;;1.43;74.63;98765.17;220954;1266;138553;-71
2023/03/28 08:26:06;;;;;;;2.40;2.20;;;;;;;1.38;74.99;98763.31;221390;1274;138323;-69
2023/03/28 08:31:22;;;;;;;2.80;2.00;;;;;;;1.47;75.10;98760.10;221520;1273;22530;-68
2023/03/28 08:36:36;;;;;;;2.10;1.50;;;;;;;1.57;74.46;98767.09;222903;1273;138223;-68
2023/03/28 08:42:40;;;;;;;1.30;1.20;;;;;;;1.71;73.09;98772.62;221527;1270;138762;-69
2023/03/28 08:48:10;;;;;;;2.30;1.60;;;;;;;1.93;70.13;98783.92;221079;1281;138454;-69
2023/03/28 08:53:36;;;;;;;2.40;1.90;;;;;;;1.65;72.24;98797.61;221479;1273;138198;-70
2023/03/28 08:59:25;;;;;;;4.20;2.50;;;;;;;1.21;74.10;98803.14;221997;1280;138970;-69
2023/03/28 09:04:51;;;;;;;4.70;3.20;;;;;;;1.22;75.60;98810.52;221549;1280;139246;-69
2023/03/28 09:11:17;;;;;;;;;;;;;;;;;;;;;
2023/03/28 09:17:25;;;;;;;1.80;1.60;;;;;;;1.68;75.05;98814.02;221098;1280;138815;-70
2023/03/28 09:23:27;;;;;;;1.50;1.40;;;;;;;1.69;74.36;98827.44;221665;1273;139509;-70
2023/03/28 09:29:22;;;;;;;1.80;1.70;;;;;;;1.96;72.54;98837.52;221692;1266;138504;-69
2023/03/28 09:34:29;;;;;;;2.20;1.90;;;;;;;2.18;70.82;98840.79;221611;1256;138273;-69
2023/03/28 09:39:58;;;;;;;2.40;1.60;;;;;;;2.27;70.45;98866.93;221607;1265;138302;-71
2023/03/28 09:45:35;;;;;;;1.60;1.50;;;;;;;2.12;70.02;98864.03;221733;1260;139216;-69
2023/03/28 09:51:47;;;;;;;2.30;1.90;;;;;;;2.00;70.93;98861.96;221730;1259;138343;-69
2023/03/28 09:57:14;;;;;;;2.50;2.10;;;;;;;2.04;71.46;98871.32;221825;1278;139025;-71
2023/03/28 10:02:34;;;;;;;2.10;1.90;;;;;;;1.94;71.33;98879.34;221630;1273;138736;-69
2023/03/28 10:08:21;;;;;;;4.50;2.10;;;;;;;1.84;72.08;98883.17;221750;1273;138409;-69
2023/03/28 10:14:15;;;;;;;5.00;2.80;;;;;;;2.08;72.79;98876.59;221504;1279;138253;-79
2023/03/28 10:19:38;;;;;;;1.70;1.60;;;;;;;2.64;72.13;98882.45;220861;1274;2709803;-72
2023/03/28 10:25:02;;;;;;;1.80;1.10;;;;;;;2.75;68.68;98885.77;221852;1263;23899;-72
2023/03/28 10:30:40;;;;;;;1.10;1.00;;;;;;;2.52;68.06;98892.73;221573;1280;139018;-72
2023/03/28 10:36:01;;;;;;;1.40;1.30;;;;;;;2.20;68.80;98894.16;221662;1280;138315;-72
2023/03/28 10:41:53;;;;;;;2.40;1.20;;;;;;;2.23;69.69;98889.11;221537;1272;139374;-75
2023/03/28 10:47:56;;;;;;;1.40;1.30;;;;;;;2.38;68.70;98894.08;223000;1273;138887;-74
2023/03/28 10:54:11;;;;;;;;;;;;;;;;;;;;;
2023/03/28 10:59:45;;;;;;;4.60;1.50;;;;;;;3.02;66.83;98878.43;221745;1273;137752;-73
2023/03/28 11:05:37;;;;;;;0.70;0.70;;;;;;;3.04;68.47;98924.45;221606;1274;137781;-73
2023/03/28 11:11:32;;;;;;;1.70;1.10;;;;;;;1.96;74.76;98943.39;221342;1259;138020;-74
2023/03/28 11:17:46;;;;;;;2.20;1.20;;;;;;;0.98;78.85;98945.45;220945;1281;138332;-78
2023/03/28 11:24:17;;;;;;;;;;;;;;;;;;;;;
2023/03/28 11:30:41;;;;;;;2.90;1.70;;;;;;;1.10;77.06;98939.65;220315;1286;138851;-74
2023/03/28 11:36:00;;;;;;;2.50;1.90;;;;;;;1.42;76.76;98929.86;220826;1280;138987;-73
2023/03/28 11:41:25;;;;;;;3.00;1.80;;;;;;;1.95;76.18;98927.34;220512;1285;138206;-72
2023/03/28 11:47:22;;;;;;;1.90;1.70;;;;;;;2.66;75.50;98936.30;220551;1285;138291;-74
2023/03/28 11:53:25;;;;;;;1.30;1.00;;;;;;;2.73;73.58;98972.09;220630;1280;138728;-73
2023/03/28 11:59:01;;;;;;;2.30;1.70;;;;;;;1.98;74.53;98987.91;222298;1280;138327;-76
2023/03/28 12:04:27;;;;;;;1.80;1.60;;;;;;;1.28;77.63;98992.14;222156;1280;138381;-76
2023/03/28 12:10:05;;;;;;;2.60;2.00;;;;;;;0.92;78.65;98995.21;221259;1280;138288;-74
2023/03/28 12:16:08;;;;;;;2.00;1.70;;;;;;;0.92;79.77;99001.10;222261;1280;138395;-75
2023/03/28 12:22:34;;;;;;;2.90;1.60;;;;;;;1.04;79.19;99001.84;222199;1280;138365;-75
2023/03/28 12:28:21;;;;;;;2.30;1.10;;;;;;;1.13;77.80;98993.77;222197;1280;138305;-77
2023/03/28 12:34:31;;;;;;;2.10;1.10;;;;;;;1.25;76.24;99001.09;222381;1275;138261;-74
2023/03/28 12:40:13;;;;;;;1.50;1.40;;;;;;;1.50;75.60;98995.94;221668;1280;138576;-77
2023/03/28 12:45:35;;;;;;;1.30;1.20;;;;;;;1.63;74.60;99005.27;221684;1259;138331;-74
2023/03/28 12:51:24;;;;;;;2.30;1.10;;;;;;;1.66;74.33;99008.63;221446;1275;138825;-73
2023/03/28 12:57:59;;;;;;;2.00;1.30;;;;;;;1.78;73.32;99015.41;221399;1275;138811;-73
2023/03/28 13:04:23;;;;;;;1.20;1.10;;;;;;;2.07;73.52;99018.01;221269;1280;138406;-73
2023/03/28 13:10:09;;;;;;;2.40;1.40;;;;;;;2.18;71.07;99002.35;221248;1278;139425;-76
2023/03/28 13:15:51;;;;;;;1.50;1.30;;;;;;;2.20;71.16;99000.96;221385;1273;138859;-73
2023/03/28 13:21:29;;;;;;;2.00;1.20;;;;;;;2.36;70.81;98998.23;221498;1273;138419;-74
2023/03/28 13:27:15;;;;;;;1.80;1.20;;;;;;;2.52;69.17;98993.17;221521;1275;138475;-82
2023/03/28 13:32:33;;;;;;;1.30;1.20;;;;;;;2.83;68.32;98991.58;221611;1271;138033;-73
2023/03/28 13:37:49;;;;;;;2.70;1.30;;;;;;;2.86;67.27;98996.34;221589;1272;137690;-76
2023/03/28 13:43:06;;;;;;;2.00;1.60;;;;;;;2.53;67.34;99034.28;221724;1272;25261;-76
2023/03/28 13:49:24;;;;;;;4.10;2.40;;;;;;;1.65;76.41;99075.52;221424;1268;24373;-73
2023/03/28 13:54:45;;;;;;;2.80;2.10;;;;;;;1.02;80.96;99073.46;221620;1280;23931;-75
2023/03/28 14:00:07;;;;;;;2.20;1.70;;;;;;;0.92;82.19;99054.36;221685;1275;138563;-70
2023/03/28 14:05:27;;;;;;;1.70;1.50;;;;;;;0.88;81.74;99052.11;221437;1273;22613;-70
2023/03/28 14:10:34;;;;;;;1.90;1.60;;;;;;;0.89;81.02;99052.52;221240;1281;22556;-70
2023/03/28 14:15:39;;;;;;;2.40;1.60;;;;;;;1.00;80.31;99047.98;220969;1281;22557;-69
2023/03/28 14:20:53;;;;;;;2.30;1.60;;;;;;;1.09;78.17;99051.95;220942;1281;25416;-69
2023/03/28 14:26:06;;;;;;;1.20;1.10;;;;;;;1.20;75.75;99060.11;221106;1281;22530;-70
2023/03/28 14:31:26;;;;;;;0.60;0.60;;;;;;;1.23;74.18;99091.59;221040;1281;25313;-70
2023/03/28 14:36:32;;;;;;;0.90;0.80;;;;;;;0.90;76.29;99072.74;221032;1265;22781;-71
2023/03/28 14:41:36;;;;;;;1.00;0.90;;;;;;;0.76;76.27;99070.33;221329;1278;23266;-70
2023/03/28 14:46:39;;;;;;;4.20;1.40;;;;;;;0.80;75.32;99086.84;221149;1277;25482;-71
2023/03/28 14:51:43;;;;;;;1.60;1.10;;;;;;;0.81;74.41;99092.54;220909;1278;22655;-72
2023/03/28 14:56:46;;;;;;;1.80;1.40;;;;;;;0.51;78.76;99118.05;221150;1280;22625;-71
2023/03/28 15:01:50;;;;;;;3.00;1.90;;;;;;;0.24;78.92;99107.93;221212;1278;25361;-71
2023/03/28 15:06:58;;;;;;;2.10;1.50;;;;;;;0.13;78.69;99107.77;221271;1281;23925;-70
2023/03/28 15:12:10;;;;;;;2.80;1.80;;;;;;;0.08;78.36;99107.92;221117;1281;24292;-69
2023/03/28 15:17:21;;;;;;;3.30;1.80;;;;;;;-0.01;78.22;99104.48;221259;1281;24298;-69
2023/03/28 15:22:33;;;;;;;1.80;1.60;;;;;;;0.09;78.87;99104.45;221122;1279;22530;-69
2023/03/28 15:27:51;;;;;;;2.20;1.80;;;;;;;0.29;78.75;99098.19;221071;1272;22526;-70
2023/03/28 15:33:00;;;;;;;2.70;2.40;;;;;;;0.48;78.55;99105.42;221323;1279;24270;-69
2023/03/28 15:38:40;;;;;;;2.90;2.20;;;;;;;0.61;78.56;99100.60;221326;1275;22964;-70
2023/03/28 15:44:29;;;;;;;3.70;2.10;;;;;;;0.75;77.40;99102.66;220875;1281;25488;-70
2023/03/28 15:49:37;;;;;;;2.00;1.70;;;;;;;0.90;77.35;99099.03;221139;1275;22527;-70
2023/03/28 15:54:43;;;;;;;2.30;1.80;;;;;;;1.10;76.71;99105.15;220994;1277;24291;-70
2023/03/28 15:59:54;;;;;;;1.90;1.70;;;;;;;1.26;75.95;99117.23;220867;1278;25343;-70
2023/03/28 16:05:08;;;;;;;2.90;2.70;;;;;;;1.29;75.39;99125.48;221122;1281;24640;-70
2023/03/28 16:10:18;;;;;;;2.40;1.90;;;;;;;1.14;75.94;99141.94;221192;1278;25438;-69
2023/03/28 16:15:52;;;;;;;2.90;2.30;;;;;;;0.81;77.07;99132.75;221166;1281;22589;-70
2023/03/28 16:21:13;;;;;;;1.90;1.70;;;;;;;0.60;77.51;99142.64;220943;1281;22715;-69
2023/03/28 16:26:16;;;;;;;2.40;1.70;;;;;;;0.41;77.64;99151.06;220921;1280;23303;-70
2023/03/28 16:31:23;;;;;;;3.30;2.60;;;;;;;0.21;77.93;99163.58;220997;1281;24085;-70
2023/03/28 16:36:26;;;;;;;2.40;2.20;;;;;;;0.10;78.12;99167.36;221210;1278;22676;-69
2023/03/28 16:41:29;;;;;;;3.50;2.80;;;;;;;-0.01;78.01;99180.59;221166;1280;22619;-69
2023/03/28 16:46:32;;;;;;;4.10;2.80;;;;;;;-0.08;78.30;99187.88;221052;1281;24249;-70
2023/03/28 16:51:39;;;;;;;3.90;2.70;;;;;;;-0.13;78.17;99200.95;221107;1281;24266;-70
2023/03/28 16:56:53;;;;;;;4.20;3.10;;;;;;;-0.20;78.19;99208.33;221115;1281;22532;-70
2023/03/28 17:01:55;;;;;;;5.00;3.50;;;;;;;-0.25;78.86;99217.85;221073;1281;22662;-69
2023/03/28 17:06:59;;;;;;;5.00;3.50;;;;;;;-0.29;78.77;99224.38;221055;1281;24402;-71
2023/03/28 17:12:03;;;;;;;5.40;3.30;;;;;;;-0.27;78.80;99227.55;221088;1278;25418;-70
2023/03/28 17:17:05;;;;;;;5.80;3.70;;;;;;;-0.24;78.60;99243.23;221046;1280;22591;-70
2023/03/28 17:22:17;;;;;;;5.80;3.60;;;;;;;-0.17;79.07;99247.45;221024;1281;25507;-70
2023/03/28 17:27:21;;;;;;;5.80;3.90;;;;;;;-0.16;78.76;99258.27;221237;1281;22839;-70
2023/03/28 17:32:24;;;;;;;5.60;3.70;;;;;;;-0.20;78.91;99262.15;221179;1274;22582;-70
2023/03/28 17:37:30;;;;;;;6.60;4.10;;;;;;;-0.24;78.23;99276.33;221060;1281;22626;-71
2023/03/28 17:42:33;;;;;;;8.40;4.10;;;;;;;-0.30;78.07;99280.71;220919;1281;24277;-70
2023/03/28 17:47:38;;;;;;;5.50;3.50;;;;;;;-0.34;77.10;99288.27;221185;1278;22662;-70
2023/03/28 17:52:40;;;;;;;4.40;2.80;;;;;;;-0.40;75.92;99296.95;221144;1278;22595;-70
2023/03/28 17:57:42;;;;;;;3.80;2.30;;;;;;;-0.41;74.43;99311.94;220766;1281;25272;-70
2023/03/28 18:02:45;;;;;;;3.00;1.90;;;;;;;-0.43;73.23;99314.85;220918;1281;25679;-69
2023/03/28 18:08:03;;;;;;;4.20;2.10;;;;;;;-0.47;72.18;99319.48;221064;1281;22625;-71
2023/03/28 18:13:08;;;;;;;2.30;1.40;;;;;;;-0.52;71.49;99327.40;221141;1281;22705;-69
2023/03/28 18:18:13;;;;;;;3.20;1.90;;;;;;;-0.57;70.76;99323.36;221217;1280;23800;-70
2023/03/28 18:23:23;;;;;;;3.20;1.80;;;;;;;-0.62;70.60;99328.98;221146;1281;25387;-70
2023/03/28 18:28:28;;;;;;;;;;;;;;;-0.71;70.81;99337.48;221254;1281;22497;-70
2023/03/28 18:33:30;;;;;;;4.00;1.90;;;;;;;-0.80;70.90;99344.51;220943;1273;23817;-69
2023/03/28 18:38:41;;;;;;;3.50;2.60;;;;;;;-0.89;71.00;99350.48;221046;1281;24374;-69
2023/03/28 18:43:44;;;;;;;3.40;2.20;;;;;;;-0.98;71.38;99356.13;221207;1281;23021;-70
2023/03/28 18:48:49;;;;;;;3.30;2.30;;;;;;;-1.06;71.14;99364.90;221300;1281;22586;-70
2023/03/28 18:53:52;;;;;;;4.30;2.70;;;;;;;-1.12;71.42;99377.38;221379;1278;27264;-70
2023/03/28 18:58:57;;;;;;;4.00;2.40;;;;;;;-1.16;70.72;99380.27;221279;1281;25514;-69
2023/03/28 19:04:00;;;;;;;4.50;2.60;;;;;;;-1.18;70.70;99386.40;220969;1264;22545;-69
2023/03/28 19:09:13;;;;;;;5.00;2.90;;;;;;;-1.21;70.36;99387.65;220969;1281;22531;-70
2023/03/28 19:14:18;;;;;;;6.80;4.00;;;;;;;-1.27;70.31;99390.48;221046;1281;25486;-69
2023/03/28 19:19:22;;;;;;;6.90;4.30;;;;;;;-1.34;70.34;99391.15;221058;1258;22590;-70
2023/03/28 19:24:24;;;;;;;7.10;4.30;;;;;;;-1.40;70.11;99400.16;221067;1281;22532;-70
2023/03/28 19:29:27;;;;;;;7.20;3.80;;;;;;;-1.49;69.93;99397.05;221118;1274;22526;-68
2023/03/28 19:34:29;;;;;;;7.30;3.80;;;;;;;-1.56;69.85;99398.58;221208;1281;22599;-70
2023/03/28 19:39:36;;;;;;;5.40;3.50;;;;;;;-1.62;70.33;99400.48;221073;1281;22530;-69
2023/03/28 19:44:45;;;;;;;7.80;4.10;;;;;;;-1.71;70.02;99404.01;221009;1281;22661;-69
2023/03/28 19:49:51;;;;;;;8.10;4.20;;;;;;;-1.81;70.19;99407.34;221056;1281;22787;-68
2023/03/28 19:55:02;;;;;;;14.20;6.70;;;;;;;-1.87;69.98;99407.57;221163;1281;22608;-70
2023/03/28 20:00:21;;;;;;;17.70;8.20;;;;;;;-1.94;70.21;99407.85;221043;1272;25639;-69
2023/03/28 20:05:26;;;;;;;18.40;8.90;;;;;;;-2.02;70.23;99405.73;220996;1281;23299;-69
2023/03/28 20:10:31;;;;;;;14.70;9.00;;;;;;;-2.09;70.00;99408.61;221142;1281;22783;-71
2023/03/28 20:15:39;;;;;;;21.10;11.20;;;;;;;-2.17;70.22;99405.44;220994;1279;22572;-70
2023/03/28 20:20:42;;;;;;;22.70;11.50;;;;;;;-2.27;70.47;99407.77;221088;1273;22646;-69
2023/03/28 20:25:46;;;;;;;19.90;10.50;;;;;;;-2.35;70.59;99405.36;221084;1281;26140;-69
2023/03/28 20:30:50;;;;;;;17.00;8.10;;;;;;;-2.45;70.82;99408.89;220737;1281;22569;-70
2023/03/28 20:35:57;;;;;;;16.60;7.90;;;;;;;-2.52;70.74;99412.35;221254;1281;23852;-68
2023/03/28 20:41:00;;;;;;;14.40;7.30;;;;;;;-2.58;70.74;99411.37;221347;1280;22583;-68
2023/03/28 20:46:03;;;;;;;16.80;8.20;;;;;;;-2.65;71.26;99411.42;221198;1281;22656;-70
2023/03/28 20:51:17;;;;;;;11.40;6.00;;;;;;;-2.72;71.32;99413.05;221107;1281;22611;-69
2023/03/28 20:56:20;;;;;;;9.20;5.10;;;;;;;-2.79;71.21;99413.80;220924;1281;22672;-70
2023/03/28 21:01:26;;;;;;;9.80;5.40;;;;;;;-2.85;71.20;99417.09;220946;1281;24399;-69
2023/03/28 21:06:35;;;;;;;10.10;5.60;;;;;;;-2.92;71.35;99430.04;221108;1281;23038;-70
2023/03/28 21:12:03;;;;;;;10.30;5.00;;;;;;;-2.95;71.30;99430.07;221112;1281;22659;-69
2023/03/28 21:17:07;;;;;;;10.80;6.30;;;;;;;-3.00;71.30;99430.86;221139;1281;22571;-69
2023/03/28 21:22:10;;;;;;;11.90;5.50;;;;;;;-3.04;71.15;99430.42;221107;1281;25523;-70
2023/03/28 21:27:14;;;;;;;15.70;7.70;;;;;;;-3.11;71.40;99431.48;220992;1281;24317;-70
2023/03/28 21:32:16;;;;;;;19.20;9.50;;;;;;;-3.18;71.64;99430.01;221167;1281;22768;-69
2023/03/28 21:37:19;;;;;;;17.80;10.70;;;;;;;-3.25;71.88;99430.58;221038;1281;23218;-69
2023/03/28 21:42:23;;;;;;;17.80;8.40;;;;;;;-3.33;72.09;99429.47;221063;1281;22675;-68
2023/03/28 21:47:26;;;;;;;15.70;8.00;;;;;;;-3.42;72.27;99436.33;221306;1266;25491;-69
2023/03/28 21:52:32;;;;;;;14.90;7.80;;;;;;;-3.50;72.34;99433.34;221075;1281;24026;-68
2023/03/28 21:57:35;;;;;;;17.30;8.50;;;;;;;-3.52;72.61;99433.08;220855;1281;23179;-69
2023/03/28 22:02:37;;;;;;;15.40;8.30;;;;;;;-3.58;72.66;99432.40;220836;1281;24208;-67
2023/03/28 22:07:43;;;;;;;18.80;9.50;;;;;;;-3.66;72.60;99431.23;220940;1281;22767;-71
2023/03/28 22:12:47;;;;;;;18.60;8.90;;;;;;;-3.73;72.84;99425.62;221061;1281;24085;-69
2023/03/28 22:17:49;;;;;;;22.10;10.30;;;;;;;-3.78;73.03;99430.90;221083;1281;24372;-69
2023/03/28 22:22:52;;;;;;;19.90;9.90;;;;;;;-3.81;73.00;99435.88;220924;1281;149046;-69
2023/03/28 22:27:56;;;;;;;18.40;9.10;;;;;;;-3.83;73.27;99442.52;220997;1281;26814;-71
2023/03/28 22:32:59;;;;;;;22.40;10.20;;;;;;;-3.85;73.31;99451.92;221185;1281;24043;-68
2023/03/28 22:38:02;;;;;;;18.10;9.80;;;;;;;-3.86;73.32;99456.14;221115;1281;22748;-68
2023/03/28 22:43:05;;;;;;;19.40;9.20;;;;;;;-3.88;73.44;99455.73;220924;1280;22534;-69
2023/03/28 22:48:13;;;;;;;23.90;11.00;;;;;;;-3.89;73.49;99454.04;220868;1281;24295;-69
2023/03/28 22:53:21;;;;;;;20.00;10.20;;;;;;;-3.92;73.53;99453.49;220877;1281;25535;-68
2023/03/28 22:58:25;;;;;;;24.40;9.30;;;;;;;-3.91;73.86;99452.42;220843;1281;22715;-68
2023/03/28 23:03:31;;;;;;;25.00;10.80;;;;;;;-3.91;73.59;99453.77;221269;1279;22889;-69
2023/03/28 23:08:36;;;;;;;24.60;11.20;;;;;;;-3.94;73.66;99454.08;221075;1281;23510;-68
2023/03/28 23:13:42;;;;;;;20.90;10.10;;;;;;;-3.96;73.74;99453.51;221080;1281;25511;-68
2023/03/28 23:18:48;;;;;;;28.50;11.70;;;;;;;-3.97;73.76;99453.41;220927;1281;25385;-69
2023/03/28 23:23:53;;;;;;;30.50;14.10;;;;;;;-3.95;73.81;99457.09;221237;1281;25731;-67
2023/03/28 23:29:00;;;;;;;36.20;14.80;;;;;;;-3.95;73.88;99461.20;221016;1281;26854;-68
2023/03/28 23:34:03;;;;;;;28.40;13.70;;;;;;;-3.99;73.79;99458.31;220786;1258;22926;-67
2023/03/28 23:39:06;;;;;;;29.80;13.70;;;;;;;-4.07;73.93;99467.34;221145;1281;22607;-68
2023/03/28 23:44:08;;;;;;;23.40;10.70;;;;;;;-4.15;73.92;99468.81;221113;1281;22841;-68
2023/03/28 23:49:18;;;;;;;;;;;;;;;-4.22;73.99;99467.46;221211;1281;25402;-69
2023/03/28 23:55:01;;;;;;;23.10;11.40;;;;;;;-4.29;74.32;99468.30;221061;1281;22681;-69
